Time;durP1;ratioP1;P1;durP2;ratioP2;P2;SDS_P1;SDS_P2;PMS_P1;PMS_P2;Temp;Humidity;BMP_temperature;BMP_pressure;BME280_temperature;BME280_humidity;BME280_pressure;Samples;Min_cycle;Max_cycle;Signal;HPM_P1;HPM_P2
2022/07/21 00:00:07;;;;;;;11.17;9.87;;;;;;;17.56;100.00;101005.13;690410;28;1222;-44
2022/07/21 00:00:28;;;;;;;11.52;9.70;;;;;;;17.56;100.00;101002.47;690814;28;1127;-45
2022/07/21 00:00:49;;;;;;;13.00;10.15;;;;;;;17.55;100.00;100998.09;691400;28;1219;-43
2022/07/21 00:01:10;;;;;;;12.43;9.73;;;;;;;17.55;100.00;100998.09;689584;28;4378;-44
2022/07/21 00:01:30;;;;;;;11.40;10.05;;;;;;;17.56;100.00;101004.28;690596;28;1237;-43
2022/07/21 00:01:53;;;;;;;11.67;10.33;;;;;;;17.59;100.00;101002.41;690707;28;1195;-45
2022/07/21 00:02:13;;;;;;;10.57;9.30;;;;;;;17.63;100.00;101001.41;689220;28;1459;-45
2022/07/21 00:02:33;;;;;;;11.30;9.33;;;;;;;17.65;100.00;100999.59;690379;28;1397;-43
2022/07/21 00:02:56;;;;;;;12.32;10.00;;;;;;;17.65;100.00;100999.59;690628;28;1733;-44
2022/07/21 00:03:16;;;;;;;11.70;10.43;;;;;;;17.69;100.00;101001.22;688591;28;1314;-44
2022/07/21 00:03:37;;;;;;;11.85;10.38;;;;;;;17.73;100.00;100998.50;690366;28;1206;-45
2022/07/21 00:03:57;;;;;;;12.47;10.50;;;;;;;17.70;100.00;101005.59;691087;28;1152;-44
2022/07/21 00:04:18;;;;;;;11.30;10.10;;;;;;;17.69;100.00;100995.94;688259;28;4407;-45
2022/07/21 00:04:39;;;;;;;11.73;10.00;;;;;;;17.66;100.00;101001.28;688178;28;1318;-42
2022/07/21 00:04:59;;;;;;;11.80;9.70;;;;;;;17.64;100.00;100996.97;687727;28;1216;-45
2022/07/21 00:05:21;;;;;;;11.93;10.15;;;;;;;17.63;100.00;101004.03;687699;28;1190;-42
2022/07/21 00:05:41;;;;;;;12.15;9.70;;;;;;;17.65;100.00;101006.63;689310;28;1254;-45
2022/07/21 00:06:02;;;;;;;12.67;9.93;;;;;;;17.67;100.00;101007.47;689519;28;1601;-44
2022/07/21 00:06:23;;;;;;;13.20;10.02;;;;;;;17.66;100.00;101005.72;689275;28;1463;-44
2022/07/21 00:06:44;;;;;;;11.83;10.50;;;;;;;17.65;100.00;101014.56;690497;28;1143;-42
2022/07/21 00:07:05;;;;;;;11.60;10.40;;;;;;;17.64;100.00;101008.44;690565;28;1221;-44
2022/07/21 00:07:25;;;;;;;11.83;10.17;;;;;;;17.65;100.00;101012.81;686150;28;4313;-42
2022/07/21 00:07:46;;;;;;;12.00;9.70;;;;;;;17.65;100.00;101012.81;683231;28;1053;-43
2022/07/21 00:08:06;;;;;;;12.43;9.40;;;;;;;17.67;100.00;101016.25;684442;28;1092;-44
2022/07/21 00:08:27;;;;;;;12.07;9.40;;;;;;;17.73;100.00;101017.00;681316;28;1158;-43
2022/07/21 00:08:47;;;;;;;10.65;9.52;;;;;;;17.76;100.00;101012.47;679572;29;1528;-43
2022/07/21 00:09:09;;;;;;;11.67;10.10;;;;;;;17.77;100.00;101018.66;678875;29;1292;-43
2022/07/21 00:09:29;;;;;;;11.35;10.15;;;;;;;17.77;100.00;101013.34;680937;28;1854;-45
2022/07/21 00:09:49;;;;;;;12.30;10.20;;;;;;;17.76;100.00;101008.97;683709;28;1582;-43
2022/07/21 00:10:10;;;;;;;11.87;9.83;;;;;;;17.75;100.00;101005.47;683599;28;4431;-44
2022/07/21 00:10:31;;;;;;;11.20;9.98;;;;;;;17.79;100.00;101011.53;683777;28;1436;-44
2022/07/21 00:10:52;;;;;;;12.10;9.85;;;;;;;17.79;100.00;101006.22;686186;28;1262;-45
2022/07/21 00:11:12;;;;;;;12.40;10.07;;;;;;;17.78;100.00;101009.81;688675;28;1480;-43
2022/07/21 00:11:33;;;;;;;12.03;10.10;;;;;;;17.75;100.00;101001.94;691570;28;1218;-42
2022/07/21 00:11:53;;;;;;;11.63;10.13;;;;;;;17.73;100.00;101006.44;689888;28;1471;-45
2022/07/21 00:12:13;;;;;;;10.90;9.50;;;;;;;17.72;100.00;101009.97;686814;28;1915;-43
2022/07/21 00:12:34;;;;;;;10.88;9.70;;;;;;;17.73;100.00;101009.06;686706;28;1310;-43
2022/07/21 00:12:56;;;;;;;11.73;10.37;;;;;;;17.74;100.00;101010.81;688498;28;1389;-44
2022/07/21 00:13:16;;;;;;;11.95;9.98;;;;;;;17.74;100.00;101013.47;686506;28;4490;-45
2022/07/21 00:13:37;;;;;;;11.07;9.87;;;;;;;17.73;100.00;101009.06;687597;28;1232;-44
2022/07/21 00:13:58;;;;;;;11.88;10.07;;;;;;;17.71;100.00;101006.47;691079;28;1119;-43
2022/07/21 00:14:18;;;;;;;10.80;9.60;;;;;;;17.70;100.00;101004.72;693168;28;1163;-43
2022/07/21 00:14:39;;;;;;;12.40;9.48;;;;;;;17.72;100.00;101009.97;691369;28;1077;-44
2022/07/21 00:14:59;;;;;;;11.47;9.77;;;;;;;17.70;100.00;101005.59;690847;28;1127;-45
2022/07/21 00:15:21;;;;;;;11.50;9.85;;;;;;;17.69;100.00;101003.00;690583;28;1217;-44
2022/07/21 00:15:42;;;;;;;11.65;9.77;;;;;;;17.70;100.00;101010.03;689782;28;1095;-44
2022/07/21 00:16:02;;;;;;;10.93;9.50;;;;;;;17.67;100.00;101003.03;690396;28;1094;-43
2022/07/21 00:16:22;;;;;;;11.80;10.05;;;;;;;17.67;100.00;100999.53;688004;28;4228;-47
2022/07/21 00:16:44;;;;;;;11.43;9.63;;;;;;;17.65;100.00;101004.00;690097;28;1191;-45
2022/07/21 00:17:04;;;;;;;11.38;9.70;;;;;;;17.63;100.00;101000.53;690396;28;1086;-46
2022/07/21 00:17:24;;;;;;;11.48;9.75;;;;;;;17.63;100.00;101001.41;691131;28;1355;-44
2022/07/21 00:17:45;;;;;;;11.53;9.70;;;;;;;17.63;100.00;100998.75;692431;28;1122;-43
2022/07/21 00:18:06;;;;;;;11.68;9.75;;;;;;;17.63;100.00;100998.75;692213;28;1266;-45
2022/07/21 00:18:29;;;;;;;10.73;9.60;;;;;;;17.64;100.00;101002.25;687890;28;1120;-43
2022/07/21 00:18:50;;;;;;;10.73;9.32;;;;;;;17.64;100.00;101005.78;688131;28;1452;-44
2022/07/21 00:19:11;;;;;;;10.75;9.57;;;;;;;17.62;100.00;100999.66;681015;28;4578;-45
2022/07/21 00:19:31;;;;;;;12.30;9.82;;;;;;;17.60;100.00;100996.19;681157;28;1374;-43
2022/07/21 00:19:51;;;;;;;12.30;10.03;;;;;;;17.60;100.00;101001.50;678380;29;1310;-45
2022/07/21 00:20:13;;;;;;;12.30;9.87;;;;;;;17.60;100.00;101000.59;679190;28;1530;-44
2022/07/21 00:20:34;;;;;;;11.23;9.45;;;;;;;17.63;100.00;100995.25;683548;28;1263;-43
2022/07/21 00:20:56;;;;;;;11.45;9.85;;;;;;;17.64;100.00;100997.84;684805;28;1133;-45
2022/07/21 00:21:16;;;;;;;11.85;9.80;;;;;;;17.67;100.00;100995.09;689256;28;1045;-44
2022/07/21 00:21:37;;;;;;;11.33;9.20;;;;;;;17.72;100.00;101000.25;689844;28;1143;-42
2022/07/21 00:21:59;;;;;;;12.93;9.90;;;;;;;17.74;100.00;101002.88;692002;28;1135;-43
2022/07/21 00:22:19;;;;;;;11.90;9.57;;;;;;;17.78;100.00;100996.59;691593;28;5320;-44
2022/07/21 00:22:40;;;;;;;12.00;9.80;;;;;;;17.77;100.00;101000.13;690614;28;1059;-44
2022/07/21 00:23:00;;;;;;;11.63;9.75;;;;;;;17.74;100.00;101002.88;692584;28;1243;-43
2022/07/21 00:23:23;;;;;;;11.10;9.83;;;;;;;17.73;100.00;101009.06;689165;28;1071;-42
2022/07/21 00:23:43;;;;;;;11.60;10.40;;;;;;;17.72;100.00;101009.97;689794;28;1018;-42
2022/07/21 00:24:04;;;;;;;11.80;9.90;;;;;;;17.69;100.00;101006.53;691065;28;1166;-44
2022/07/21 00:24:24;;;;;;;11.98;9.77;;;;;;;17.70;100.00;101008.22;687002;28;1172;-45
2022/07/21 00:24:44;;;;;;;12.27;9.77;;;;;;;17.72;100.00;101007.31;687966;28;1257;-42
2022/07/21 00:25:06;;;;;;;11.52;9.45;;;;;;;17.72;100.00;101013.47;687171;28;1096;-43
2022/07/21 00:25:26;;;;;;;12.18;9.65;;;;;;;17.72;100.00;101010.81;686682;28;6062;-44
2022/07/21 00:25:47;;;;;;;11.43;9.32;;;;;;;17.69;100.00;101016.22;687214;28;1617;-43
2022/07/21 00:26:07;;;;;;;11.00;9.40;;;;;;;17.66;100.00;101014.50;686957;28;1281;-44
2022/07/21 00:26:28;;;;;;;10.73;9.07;;;;;;;17.67;100.00;101013.63;688711;28;1619;-43
2022/07/21 00:26:48;;;;;;;11.90;9.47;;;;;;;17.67;100.00;101012.75;686765;28;1258;-44
2022/07/21 00:27:08;;;;;;;10.43;9.32;;;;;;;17.67;100.00;101015.41;686829;28;1309;-44
2022/07/21 00:27:29;;;;;;;10.30;9.10;;;;;;;17.64;100.00;101019.00;688226;28;1178;-43
2022/07/21 00:27:50;;;;;;;10.83;9.40;;;;;;;17.65;100.00;101018.09;687964;28;1123;-44
2022/07/21 00:28:10;;;;;;;10.98;9.88;;;;;;;17.65;100.00;101020.75;686376;28;4592;-43
2022/07/21 00:28:30;;;;;;;11.73;9.60;;;;;;;17.63;100.00;101011.13;688898;28;1259;-43
2022/07/21 00:28:51;;;;;;;11.33;9.40;;;;;;;17.62;100.00;101015.50;688041;28;1226;-44
2022/07/21 00:29:11;;;;;;;11.87;9.87;;;;;;;17.61;100.00;101023.50;686775;28;1298;-45
2022/07/21 00:29:31;;;;;;;11.52;10.25;;;;;;;17.60;100.00;101021.75;684979;28;1199;-43
2022/07/21 00:29:52;;;;;;;11.73;9.97;;;;;;;17.59;100.00;101018.25;683828;28;1283;-45
2022/07/21 00:30:14;;;;;;;11.27;9.38;;;;;;;17.61;100.00;101023.50;683641;28;1259;-43
2022/07/21 00:30:34;;;;;;;13.15;9.68;;;;;;;17.60;100.00;101027.03;684425;28;1238;-43
2022/07/21 00:30:55;;;;;;;13.37;9.67;;;;;;;17.59;100.00;101025.31;686107;28;1384;-44
2022/07/21 00:31:15;;;;;;;10.52;9.20;;;;;;;17.56;100.00;101026.28;685774;28;4569;-44
2022/07/21 00:31:36;;;;;;;10.60;9.50;;;;;;;17.55;100.00;101027.19;690630;28;1397;-44
2022/07/21 00:31:56;;;;;;;11.98;10.02;;;;;;;17.56;100.00;101036.84;689398;28;1194;-44
2022/07/21 00:32:17;;;;;;;11.40;9.90;;;;;;;17.56;100.00;101030.72;689001;28;1962;-43
2022/07/21 00:32:38;;;;;;;11.48;10.02;;;;;;;17.55;100.00;101028.97;687327;28;1187;-45
2022/07/21 00:32:59;;;;;;;12.70;9.48;;;;;;;17.55;100.00;101032.47;687086;28;1530;-43
2022/07/21 00:33:19;;;;;;;13.55;9.75;;;;;;;17.55;100.00;101023.69;690308;28;1290;-43
2022/07/21 00:33:39;;;;;;;12.23;9.77;;;;;;;17.55;100.00;101032.47;689608;28;1229;-44
2022/07/21 00:34:00;;;;;;;12.03;10.13;;;;;;;17.56;100.00;101028.06;689641;28;1221;-45
2022/07/21 00:34:20;;;;;;;11.10;9.88;;;;;;;17.55;100.00;101029.81;689370;28;4306;-44
2022/07/21 00:34:40;;;;;;;11.80;9.67;;;;;;;17.54;100.00;101028.06;693559;28;1280;-44
2022/07/21 00:35:02;;;;;;;12.95;10.52;;;;;;;17.53;100.00;101029.00;690359;28;1239;-44
2022/07/21 00:35:22;;;;;;;13.98;10.50;;;;;;;17.53;100.00;101031.66;690420;28;1202;-45
2022/07/21 00:35:43;;;;;;;13.90;10.70;;;;;;;17.51;100.00;101025.53;689975;28;1527;-43
2022/07/21 00:36:03;;;;;;;13.13;10.20;;;;;;;17.52;100.00;101032.56;690836;28;1308;-44
2022/07/21 00:36:24;;;;;;;12.45;10.18;;;;;;;17.50;100.00;101037.88;690806;28;1253;-44
2022/07/21 00:36:44;;;;;;;12.57;9.93;;;;;;;17.50;100.00;101029.06;689095;28;1309;-43
2022/07/21 00:37:04;;;;;;;13.00;10.50;;;;;;;17.50;100.00;101027.31;688011;28;1395;-43
2022/07/21 00:37:27;;;;;;;12.63;10.52;;;;;;;17.49;100.00;101028.22;688130;28;4545;-44
2022/07/21 00:37:47;;;;;;;12.30;10.05;;;;;;;17.50;100.00;101022.03;685902;28;1184;-44
2022/07/21 00:38:07;;;;;;;11.73;9.93;;;;;;;17.51;100.00;101025.53;688966;28;1467;-43
2022/07/21 00:38:28;;;;;;;11.00;9.80;;;;;;;17.51;100.00;101022.88;689121;28;1317;-42
2022/07/21 00:38:48;;;;;;;11.27;10.07;;;;;;;17.54;100.00;101022.78;689111;28;4821;-43
2022/07/21 00:39:09;;;;;;;11.05;9.93;;;;;;;17.53;100.00;101019.28;690644;28;1223;-44
2022/07/21 00:39:29;;;;;;;11.93;9.87;;;;;;;17.53;100.00;101010.50;690737;28;1325;-43
2022/07/21 00:39:50;;;;;;;13.07;10.13;;;;;;;17.52;100.00;101008.78;689916;28;1288;-45
2022/07/21 00:40:13;;;;;;;13.43;10.15;;;;;;;17.52;100.00;101006.13;687839;28;4317;-43
2022/07/21 00:40:33;;;;;;;11.27;10.05;;;;;;;17.49;100.00;101000.94;687475;28;1462;-43
2022/07/21 00:40:54;;;;;;;11.70;10.00;;;;;;;17.49;100.00;100996.50;687351;28;1385;-45
2022/07/21 00:41:14;;;;;;;11.60;9.83;;;;;;;17.50;100.00;100997.34;688775;28;1294;-43
2022/07/21 00:41:35;;;;;;;11.85;9.73;;;;;;;17.49;100.00;100995.66;690007;28;1476;-43
2022/07/21 00:41:55;;;;;;;12.27;9.60;;;;;;;17.50;100.00;101000.00;691572;28;1469;-46
2022/07/21 00:42:20;;;;;;;11.47;9.77;;;;;;;17.51;100.00;101002.63;691018;28;1722;-44
2022/07/21 00:42:42;;;;;;;12.43;10.20;;;;;;;17.51;100.00;101007.03;690180;28;1107;-45
2022/07/21 00:43:03;;;;;;;13.07;9.95;;;;;;;17.53;100.00;101010.50;690946;28;1336;-43
2022/07/21 00:43:24;;;;;;;11.30;9.43;;;;;;;17.56;100.00;101012.22;689790;28;4281;-43
2022/07/21 00:43:44;;;;;;;12.07;9.85;;;;;;;17.58;100.00;101018.31;690416;28;1390;-45
2022/07/21 00:44:05;;;;;;;13.53;10.00;;;;;;;17.60;100.00;101021.75;689159;28;1511;-44
2022/07/21 00:44:27;;;;;;;12.20;9.80;;;;;;;17.60;100.00;101027.94;687156;28;1194;-43
2022/07/21 00:44:47;;;;;;;11.10;9.35;;;;;;;17.62;100.00;101034.03;687825;28;1275;-44
2022/07/21 00:45:09;;;;;;;11.10;9.50;;;;;;;17.63;100.00;101034.91;689493;28;1851;-43
2022/07/21 00:45:29;;;;;;;11.32;10.02;;;;;;;17.64;100.00;101042.78;688805;28;1494;-43
2022/07/21 00:45:54;;;;;;;12.38;10.27;;;;;;;17.69;100.00;101038.25;688122;28;1230;-42
2022/07/21 00:46:14;;;;;;;12.35;10.48;;;;;;;17.70;100.00;101039.97;689604;28;4309;-44
2022/07/21 00:46:35;;;;;;;12.23;10.63;;;;;;;17.68;100.00;101039.16;689577;28;1393;-44
2022/07/21 00:46:57;;;;;;;12.13;10.83;;;;;;;17.66;100.00;101040.94;690645;28;1727;-43
2022/07/21 00:47:24;;;;;;;11.82;10.60;;;;;;;17.66;100.00;101042.75;688063;28;1366;-43
2022/07/21 00:47:45;;;;;;;13.32;10.45;;;;;;;17.65;100.00;101047.19;687321;28;1473;-43
2022/07/21 00:48:05;;;;;;;11.43;10.13;;;;;;;17.66;100.00;101048.03;686778;28;1278;-43
2022/07/21 00:48:26;;;;;;;13.27;10.55;;;;;;;17.65;100.00;101041.88;686827;28;1281;-44
2022/07/21 00:48:46;;;;;;;13.37;10.40;;;;;;;17.65;100.00;101051.56;687373;28;1424;-43
2022/07/21 00:49:07;;;;;;;12.05;10.48;;;;;;;17.66;100.00;101045.38;685552;28;4295;-42
2022/07/21 00:49:27;;;;;;;11.63;10.43;;;;;;;17.65;100.00;101041.88;687069;28;1397;-44
2022/07/21 00:49:48;;;;;;;12.35;10.30;;;;;;;17.63;100.00;101041.03;686391;28;1353;-43
2022/07/21 00:50:12;;;;;;;12.00;10.70;;;;;;;17.63;100.00;101043.69;689364;28;1009;-45
2022/07/21 00:50:33;;;;;;;11.93;10.63;;;;;;;17.63;100.00;101043.69;688508;28;979;-44
2022/07/21 00:50:53;;;;;;;12.55;10.90;;;;;;;17.63;100.00;101041.03;689268;28;1818;-44
2022/07/21 00:51:14;;;;;;;12.07;10.50;;;;;;;17.66;100.00;101042.75;690292;28;1245;-43
2022/07/21 00:51:34;;;;;;;11.35;10.20;;;;;;;17.66;100.00;101038.31;693090;28;915;-44
2022/07/21 00:51:55;;;;;;;11.67;10.03;;;;;;;17.69;100.00;101040.91;692859;28;1727;-44
2022/07/21 00:52:15;;;;;;;12.45;10.45;;;;;;;17.69;100.00;101038.25;691695;28;4567;-44
2022/07/21 00:52:37;;;;;;;12.20;10.90;;;;;;;17.69;100.00;101038.25;691624;28;1593;-44
2022/07/21 00:52:58;;;;;;;11.90;10.52;;;;;;;17.74;100.00;101038.09;692742;28;1448;-43
2022/07/21 00:53:18;;;;;;;12.70;10.70;;;;;;;17.77;100.00;101037.16;692566;28;860;-43
2022/07/21 00:53:38;;;;;;;12.53;10.27;;;;;;;17.79;100.00;101033.56;692781;28;1659;-45
2022/07/21 00:53:59;;;;;;;13.70;10.30;;;;;;;17.84;100.00;101044.00;692668;28;1264;-43
2022/07/21 00:54:19;;;;;;;12.38;9.98;;;;;;;17.86;100.00;101044.81;691376;28;1393;-43
2022/07/21 00:54:40;;;;;;;12.10;10.40;;;;;;;17.88;100.00;101048.28;692359;28;1676;-48
2022/07/21 00:55:01;;;;;;;11.57;10.38;;;;;;;17.87;100.00;101050.06;693401;28;1333;-43
2022/07/21 00:55:22;;;;;;;11.68;10.32;;;;;;;17.87;100.00;101036.84;690442;28;4397;-44
2022/07/21 00:55:44;;;;;;;11.47;10.27;;;;;;;17.86;100.00;101045.69;692015;28;950;-44
2022/07/21 00:56:05;;;;;;;11.75;10.55;;;;;;;17.90;100.00;101041.16;691201;28;1217;-43
2022/07/21 00:56:26;;;;;;;12.32;10.95;;;;;;;17.91;100.00;101042.94;691292;28;824;-43
2022/07/21 00:56:47;;;;;;;11.82;10.50;;;;;;;17.90;100.00;101033.22;691267;28;1418;-44
2022/07/21 00:57:07;;;;;;;12.73;11.07;;;;;;;17.90;100.00;101042.94;691022;28;1729;-45
2022/07/21 00:57:28;;;;;;;12.93;10.57;;;;;;;17.91;100.00;101039.41;691019;28;970;-44
2022/07/21 00:57:50;;;;;;;13.93;11.00;;;;;;;17.89;100.00;101039.44;688495;28;1564;-44
2022/07/21 00:58:11;;;;;;;12.80;10.77;;;;;;;17.87;100.00;101036.84;686708;28;4407;-44
2022/07/21 00:58:31;;;;;;;12.45;10.65;;;;;;;17.84;100.00;101039.56;689298;28;1357;-46
2022/07/21 00:58:52;;;;;;;11.95;10.70;;;;;;;17.79;100.00;101038.84;688580;28;800;-44
2022/07/21 00:59:12;;;;;;;12.03;10.77;;;;;;;17.81;100.00;101038.81;689723;28;1837;-43
2022/07/21 00:59:33;;;;;;;12.10;10.90;;;;;;;17.80;100.00;101040.56;689403;28;1635;-44
2022/07/21 00:59:53;;;;;;;12.33;11.03;;;;;;;17.78;100.00;101042.41;692064;28;1445;-44
2022/07/21 01:00:21;;;;;;;12.57;11.10;;;;;;;17.77;100.00;101045.94;691009;28;978;-45
2022/07/21 01:00:41;;;;;;;12.55;11.25;;;;;;;17.77;100.00;101045.94;691255;28;920;-42
2022/07/21 01:01:01;;;;;;;12.57;11.13;;;;;;;17.77;100.00;101045.09;692363;28;1418;-43
2022/07/21 01:01:22;;;;;;;12.57;10.90;;;;;;;17.77;100.00;101045.09;689294;28;4565;-44
2022/07/21 01:01:42;;;;;;;13.30;11.15;;;;;;;17.75;100.00;101053.06;689219;28;1253;-44
2022/07/21 01:02:04;;;;;;;13.23;11.43;;;;;;;17.72;100.00;101047.84;688227;28;1397;-44
2022/07/21 01:02:26;;;;;;;14.40;11.68;;;;;;;17.70;100.00;101054.97;685866;28;963;-44
2022/07/21 01:02:47;;;;;;;13.27;11.52;;;;;;;17.67;100.00;101045.34;689103;28;1958;-44
2022/07/21 01:03:07;;;;;;;12.70;11.30;;;;;;;17.69;100.00;101051.47;691200;28;826;-44
2022/07/21 01:03:28;;;;;;;13.20;11.23;;;;;;;17.70;100.00;101054.97;689254;28;908;-43
2022/07/21 01:03:48;;;;;;;12.77;11.30;;;;;;;17.69;100.00;101054.13;690860;28;2764;-43
2022/07/21 01:04:09;;;;;;;12.67;11.20;;;;;;;17.69;100.00;101055.88;689899;28;4325;-45
2022/07/21 01:04:29;;;;;;;13.07;11.35;;;;;;;17.70;100.00;101060.25;688551;28;936;-45
2022/07/21 01:04:50;;;;;;;14.30;11.67;;;;;;;17.70;100.00;101054.97;691549;28;1493;-43
2022/07/21 01:05:14;;;;;;;14.52;11.48;;;;;;;17.70;100.00;101055.81;692240;28;1240;-45
2022/07/21 01:05:35;;;;;;;14.75;11.23;;;;;;;17.70;100.00;101061.09;690708;28;2094;-43
2022/07/21 01:05:57;;;;;;;13.13;11.35;;;;;;;17.70;100.00;101058.47;689984;28;1491;-43
2022/07/21 01:06:18;;;;;;;13.30;11.43;;;;;;;17.69;100.00;101058.50;691100;28;1559;-46
2022/07/21 01:06:38;;;;;;;13.40;11.43;;;;;;;17.70;100.00;101052.31;690994;28;986;-45
2022/07/21 01:07:01;;;;;;;14.10;11.60;;;;;;;17.77;100.00;101055.66;687796;28;1429;-43
2022/07/21 01:07:21;;;;;;;12.82;11.35;;;;;;;17.80;100.00;101050.28;686209;28;4395;-45
2022/07/21 01:07:44;;;;;;;12.85;11.15;;;;;;;17.80;100.00;101051.13;688132;28;973;-43
2022/07/21 01:08:05;;;;;;;13.23;11.00;;;;;;;17.82;100.00;101056.38;686955;28;1867;-43
2022/07/21 01:08:27;;;;;;;12.77;11.27;;;;;;;17.84;100.00;101051.94;684818;28;1422;-45
2022/07/21 01:08:47;;;;;;;13.65;11.07;;;;;;;17.83;100.00;101050.19;685311;28;1429;-44
2022/07/21 01:09:08;;;;;;;14.30;10.98;;;;;;;17.80;100.00;101050.28;686973;28;1619;-43
2022/07/21 01:09:28;;;;;;;14.40;10.60;;;;;;;17.80;100.00;101055.56;688935;28;1197;-43
2022/07/21 01:09:49;;;;;;;13.68;10.65;;;;;;;17.74;100.00;101048.69;689816;28;1348;-43
2022/07/21 01:10:12;;;;;;;13.18;11.07;;;;;;;17.72;100.00;101052.28;687235;28;4523;-46
2022/07/21 01:10:32;;;;;;;13.40;11.50;;;;;;;17.70;100.00;101050.53;687405;28;1431;-44
2022/07/21 01:10:54;;;;;;;14.10;11.45;;;;;;;17.69;100.00;101054.13;689267;28;1123;-45
2022/07/21 01:11:15;;;;;;;12.20;10.90;;;;;;;17.73;100.00;101060.16;688677;28;1311;-44
2022/07/21 01:11:35;;;;;;;13.73;11.18;;;;;;;17.73;100.00;101054.00;687917;28;1645;-44
2022/07/21 01:11:57;;;;;;;13.18;11.07;;;;;;;17.74;100.00;101058.41;689904;28;1183;-44
2022/07/21 01:12:18;;;;;;;13.20;10.60;;;;;;;17.77;100.00;101055.66;690860;28;1919;-44
2022/07/21 01:12:40;;;;;;;13.23;10.77;;;;;;;17.78;100.00;101052.97;690790;28;3663;-44
2022/07/21 01:13:01;;;;;;;12.82;10.82;;;;;;;17.81;100.00;101057.31;690739;28;1254;-44
2022/07/21 01:13:21;;;;;;;12.50;10.38;;;;;;;17.82;100.00;101053.72;690287;28;4396;-45
2022/07/21 01:13:43;;;;;;;11.60;10.13;;;;;;;17.81;100.00;101046.72;690180;28;1119;-45
2022/07/21 01:14:03;;;;;;;14.05;10.38;;;;;;;17.81;100.00;101052.03;689258;28;1194;-45
2022/07/21 01:14:24;;;;;;;16.05;10.98;;;;;;;17.84;100.00;101050.13;693130;28;1184;-46
2022/07/21 01:14:45;;;;;;;14.35;10.18;;;;;;;17.89;100.00;101055.31;692344;28;1420;-45
2022/07/21 01:15:07;;;;;;;14.15;9.35;;;;;;;17.91;100.00;101048.22;691742;28;1302;-45
2022/07/21 01:15:28;;;;;;;11.90;9.07;;;;;;;17.88;100.00;101049.13;691918;28;1628;-44
2022/07/21 01:15:48;;;;;;;9.95;8.30;;;;;;;17.85;100.00;101046.59;692771;28;1321;-44
2022/07/21 01:16:09;;;;;;;9.03;7.63;;;;;;;17.81;100.00;101046.72;690971;28;4627;-46
2022/07/21 01:16:30;;;;;;;10.57;7.90;;;;;;;17.76;100.00;101048.63;690201;28;1270;-45
2022/07/21 01:16:51;;;;;;;11.38;8.02;;;;;;;17.73;100.00;101051.38;690834;28;1516;-45
2022/07/21 01:17:11;;;;;;;12.82;7.80;;;;;;;17.65;100.00;101054.22;690355;28;1681;-47
2022/07/21 01:17:33;;;;;;;9.65;7.90;;;;;;;17.61;100.00;101047.28;690101;28;1120;-46
2022/07/21 01:17:53;;;;;;;10.77;8.43;;;;;;;17.60;100.00;101053.47;689626;28;1938;-45
2022/07/21 01:18:14;;;;;;;10.87;8.27;;;;;;;17.59;100.00;101055.25;690067;28;1481;-45
2022/07/21 01:18:36;;;;;;;10.27;8.30;;;;;;;17.58;100.00;101050.88;690376;28;1408;-45
2022/07/21 01:18:57;;;;;;;11.02;8.88;;;;;;;17.55;100.00;101045.69;691937;28;1676;-45
2022/07/21 01:19:17;;;;;;;12.13;8.80;;;;;;;17.52;100.00;101043.13;691607;28;4292;-45
2022/07/21 01:19:38;;;;;;;11.23;8.93;;;;;;;17.49;100.00;101049.38;693132;28;1457;-46
2022/07/21 01:20:05;;;;;;;10.97;8.60;;;;;;;17.49;100.00;101045.88;693788;28;1759;-45
2022/07/21 01:20:25;;;;;;;11.93;8.43;;;;;;;17.48;100.00;101044.13;693072;28;1522;-46
2022/07/21 01:20:51;;;;;;;11.23;8.50;;;;;;;17.52;100.00;101043.13;691605;28;1580;-45
2022/07/21 01:21:33;;;;;;;10.80;8.50;;;;;;;17.45;100.00;101045.06;692081;28;1449;-45
2022/07/21 01:21:53;;;;;;;11.95;8.52;;;;;;;17.43;100.00;101044.25;689841;28;1566;-44
2022/07/21 01:22:14;;;;;;;10.90;8.38;;;;;;;17.42;100.00;101047.81;688793;28;4574;-45
2022/07/21 01:22:37;;;;;;;11.20;8.40;;;;;;;17.40;100.00;101044.31;689668;28;1939;-45
2022/07/21 01:22:57;;;;;;;11.00;8.40;;;;;;;17.36;100.00;101045.31;692752;28;1766;-48
2022/07/21 01:23:18;;;;;;;14.18;8.65;;;;;;;17.31;100.00;101041.94;688960;28;1699;-47
2022/07/21 01:23:39;;;;;;;13.70;8.10;;;;;;;17.29;100.00;101049.03;689241;28;2439;-47
2022/07/21 01:24:00;;;;;;;11.80;8.43;;;;;;;17.26;100.00;101046.47;690695;28;1766;-44
2022/07/21 01:24:20;;;;;;;10.25;7.88;;;;;;;17.25;100.00;101047.38;689038;28;1960;-48
2022/07/21 01:24:40;;;;;;;9.85;7.57;;;;;;;17.23;100.00;101050.06;690841;28;1203;-47
2022/07/21 01:25:01;;;;;;;9.73;7.30;;;;;;;17.23;100.00;101046.56;689290;28;1554;-45
2022/07/21 01:25:22;;;;;;;10.23;7.70;;;;;;;17.24;100.00;101045.63;689461;28;4523;-46
2022/07/21 01:25:50;;;;;;;9.83;7.83;;;;;;;17.19;100.00;101045.78;690116;28;1611;-45
2022/07/21 01:26:11;;;;;;;9.70;7.60;;;;;;;17.18;100.00;101046.66;688267;28;1519;-46
2022/07/21 01:26:41;;;;;;;10.67;7.77;;;;;;;17.17;100.00;101050.25;692048;28;1561;-46
2022/07/21 01:27:01;;;;;;;12.40;8.10;;;;;;;17.18;100.00;101051.94;691122;28;1857;-45
2022/07/21 01:27:25;;;;;;;14.40;8.60;;;;;;;17.21;100.00;101056.28;692268;28;1615;-46
2022/07/21 01:27:46;;;;;;;12.15;8.20;;;;;;;17.18;100.00;101057.22;691511;28;1353;-45
2022/07/21 01:28:06;;;;;;;11.70;8.05;;;;;;;17.17;100.00;101056.38;688767;28;4630;-46
2022/07/21 01:28:27;;;;;;;9.83;7.50;;;;;;;17.14;100.00;101051.19;686357;28;1189;-46
2022/07/21 01:28:47;;;;;;;10.27;7.25;;;;;;;17.12;100.00;101057.41;686868;28;1454;-47
2022/07/21 01:29:09;;;;;;;11.27;7.67;;;;;;;17.11;100.00;101064.47;688265;28;1350;-46
2022/07/21 01:29:30;;;;;;;12.38;7.85;;;;;;;17.10;100.00;101061.84;683066;28;1647;-45
2022/07/21 01:29:50;;;;;;;12.93;7.87;;;;;;;17.08;100.00;101063.69;681542;28;1639;-46
2022/07/21 01:30:12;;;;;;;11.83;8.07;;;;;;;17.09;100.00;101068.91;682570;28;1742;-44
2022/07/21 01:30:32;;;;;;;9.85;8.00;;;;;;;17.07;100.00;101060.19;682851;28;1812;-44
2022/07/21 01:30:53;;;;;;;10.40;8.00;;;;;;;17.07;100.00;101057.53;683739;28;1485;-46
2022/07/21 01:31:13;;;;;;;9.80;7.77;;;;;;;17.06;100.00;101065.47;684003;28;4625;-46
2022/07/21 01:31:33;;;;;;;11.67;8.30;;;;;;;17.07;100.00;101061.94;686759;28;1544;-45
2022/07/21 01:31:54;;;;;;;11.77;8.40;;;;;;;17.07;100.00;101061.94;685208;28;1302;-44
2022/07/21 01:32:14;;;;;;;10.90;8.43;;;;;;;17.06;100.00;101062.81;687977;28;1912;-47
2022/07/21 01:32:39;;;;;;;9.57;8.30;;;;;;;17.06;100.00;101057.53;690098;28;1424;-46
2022/07/21 01:32:59;;;;;;;9.93;8.18;;;;;;;17.05;100.00;101063.75;689311;28;1529;-45
2022/07/21 01:33:20;;;;;;;12.40;8.65;;;;;;;17.05;100.00;101061.13;689468;28;1364;-45
2022/07/21 01:33:40;;;;;;;11.57;8.07;;;;;;;17.08;100.00;101063.69;688042;28;1211;-45
2022/07/21 01:34:00;;;;;;;10.88;8.05;;;;;;;17.11;100.00;101063.59;689777;28;1173;-47
2022/07/21 01:34:21;;;;;;;9.63;8.10;;;;;;;17.14;100.00;101060.88;688399;28;4457;-44
2022/07/21 01:34:41;;;;;;;11.07;8.15;;;;;;;17.15;100.00;101060.81;690592;28;1317;-46
2022/07/21 01:35:04;;;;;;;10.10;8.00;;;;;;;17.15;100.00;101057.31;689953;28;1229;-44
2022/07/21 01:35:24;;;;;;;9.70;7.72;;;;;;;17.17;100.00;101056.38;689398;28;1270;-47
2022/07/21 01:35:46;;;;;;;9.32;7.57;;;;;;;17.19;100.00;101058.97;690462;28;1229;-44
2022/07/21 01:36:07;;;;;;;9.93;7.50;;;;;;;17.21;100.00;101053.66;690448;28;1170;-45
2022/07/21 01:36:27;;;;;;;9.25;7.75;;;;;;;17.22;100.00;101056.25;689743;28;1221;-45
2022/07/21 01:36:47;;;;;;;10.67;8.30;;;;;;;17.25;100.00;101058.84;689208;28;1294;-45
2022/07/21 01:37:08;;;;;;;11.20;8.33;;;;;;;17.27;100.00;101059.66;687055;28;5555;-45
2022/07/21 01:37:30;;;;;;;11.30;8.27;;;;;;;17.29;100.00;101065.78;687597;28;1379;-45